createdAt,value
2019-02-26T00:01:59.929Z,4.11
2019-02-26T00:04:10.313Z,3.96
2019-02-26T00:06:22.787Z,3.84
2019-02-26T00:08:33.868Z,3.80
2019-02-26T00:10:44.658Z,3.79
2019-02-26T00:13:15.366Z,3.77
2019-02-26T00:15:26.266Z,3.78
2019-02-26T00:17:40.451Z,3.80
2019-02-26T00:19:49.784Z,3.72
2019-02-26T00:22:00.601Z,3.69
2019-02-26T00:24:12.818Z,3.66
2019-02-26T00:26:24.139Z,3.71
2019-02-26T00:28:36.531Z,3.73
2019-02-26T00:30:47.691Z,3.71
2019-02-26T00:33:00.113Z,3.73
2019-02-26T00:35:11.313Z,3.77
2019-02-26T00:37:24.219Z,3.82
2019-02-26T00:39:34.892Z,3.86
2019-02-26T00:41:49.309Z,3.83
2019-02-26T00:43:59.846Z,3.80
2019-02-26T00:46:11.327Z,3.76
2019-02-26T00:48:22.148Z,3.74
2019-02-26T00:50:35.026Z,3.68
2019-02-26T00:52:45.924Z,3.69
2019-02-26T00:55:18.508Z,3.67
2019-02-26T00:57:31.255Z,3.62
2019-02-26T00:59:44.063Z,3.51
2019-02-26T01:01:56.619Z,3.47
2019-02-26T01:04:07.487Z,3.39
2019-02-26T01:06:18.293Z,3.38
2019-02-26T01:08:29.072Z,3.37
2019-02-26T01:10:41.528Z,3.36
2019-02-26T01:12:52.616Z,3.36
2019-02-26T01:15:25.520Z,3.36
2019-02-26T01:17:38.360Z,3.36
2019-02-26T01:19:49.043Z,3.36
2019-02-26T01:21:59.826Z,3.37
2019-02-26T01:24:10.667Z,3.37
2019-02-26T01:26:21.472Z,3.38
2019-02-26T01:28:32.316Z,3.46
2019-02-26T01:30:43.156Z,3.49
2019-02-26T01:32:53.939Z,3.58
2019-02-26T01:35:05.999Z,3.69
2019-02-26T01:37:17.711Z,3.67
2019-02-26T01:39:28.534Z,3.68
2019-02-26T01:41:41.408Z,3.65
2019-02-26T01:43:52.070Z,3.53
2019-02-26T01:46:02.874Z,3.48
2019-02-26T01:48:17.983Z,3.37
2019-02-26T01:50:28.026Z,3.33
2019-02-26T01:52:39.204Z,3.28
2019-02-26T01:54:51.357Z,3.22
2019-02-26T01:57:02.846Z,3.14
2019-02-26T01:59:18.267Z,3.05
2019-02-26T02:01:26.392Z,2.92
2019-02-26T02:03:57.069Z,2.86
2019-02-26T02:06:10.651Z,2.86
2019-02-26T02:08:22.617Z,2.90
2019-02-26T02:10:33.449Z,2.95
2019-02-26T02:12:44.251Z,3.02
2019-02-26T02:14:55.070Z,2.97
2019-02-26T02:17:06.547Z,2.82
2019-02-26T02:19:22.314Z,2.84
2019-02-26T02:21:33.300Z,2.83
2019-02-26T02:23:44.843Z,2.74
2019-02-26T02:25:59.810Z,2.70
2019-02-26T02:28:09.474Z,2.79
2019-02-26T02:30:26.820Z,2.74
2019-02-26T02:32:34.464Z,2.75
2019-02-26T02:34:45.683Z,2.79
2019-02-26T02:36:56.597Z,2.86
2019-02-26T02:39:10.423Z,2.87
2019-02-26T02:41:20.225Z,2.78
2019-02-26T02:43:31.043Z,2.77
2019-02-26T02:45:41.852Z,2.75
2019-02-26T02:47:57.841Z,2.74
2019-02-26T02:50:25.213Z,2.67
2019-02-26T02:52:37.921Z,2.71
2019-02-26T02:54:49.920Z,2.74
2019-02-26T02:57:02.576Z,2.72
2019-02-26T02:59:16.468Z,2.75
2019-02-26T03:01:28.661Z,2.58
2019-02-26T03:03:39.574Z,2.50
2019-02-26T03:05:50.387Z,2.46
2019-02-26T03:08:01.198Z,2.46
2019-02-26T03:10:53.638Z,2.46
2019-02-26T03:13:04.461Z,2.48
2019-02-26T03:15:15.575Z,2.52
2019-02-26T03:17:26.363Z,2.53
2019-02-26T03:19:40.675Z,2.56
2019-02-26T03:21:52.428Z,2.56
2019-02-26T03:24:03.574Z,2.55
2019-02-26T03:26:17.676Z,2.51
2019-02-26T03:28:28.188Z,2.42
2019-02-26T03:30:43.840Z,2.36
2019-02-26T03:32:58.650Z,2.36
2019-02-26T03:35:46.039Z,2.41
2019-02-26T03:37:58.151Z,2.45
2019-02-26T03:40:51.993Z,2.47
2019-02-26T03:43:05.462Z,2.46
2019-02-26T03:45:23.835Z,2.49
2019-02-26T03:47:29.564Z,2.55
2019-02-26T03:49:42.248Z,2.62
2019-02-26T03:51:53.085Z,2.67
2019-02-26T03:54:03.907Z,2.73
2019-02-26T03:56:56.357Z,2.78
2019-02-26T03:59:09.546Z,2.78
2019-02-26T04:01:21.618Z,2.69
2019-02-26T04:03:34.687Z,2.66
2019-02-26T04:05:45.318Z,2.55
2019-02-26T04:07:58.927Z,2.54
2019-02-26T04:10:52.897Z,2.53
2019-02-26T04:13:03.221Z,2.49
2019-02-26T04:15:57.115Z,2.38
2019-02-26T04:18:08.379Z,2.29
2019-02-26T04:20:19.199Z,2.26
2019-02-26T04:23:14.178Z,2.16
2019-02-26T04:26:04.107Z,2.09
2019-02-26T04:28:57.410Z,1.97
2019-02-26T04:31:52.179Z,1.95
2019-02-26T04:34:43.376Z,1.94
2019-02-26T04:37:35.245Z,1.87
2019-02-26T04:40:28.364Z,1.89
2019-02-26T04:43:18.806Z,1.92
2019-02-26T04:46:10.898Z,1.92
2019-02-26T04:49:03.704Z,1.94
2019-02-26T04:51:14.529Z,1.98
2019-02-26T04:53:28.217Z,2.00
2019-02-26T04:55:39.107Z,1.97
2019-02-26T04:58:34.427Z,2.01
2019-02-26T05:00:45.200Z,2.04
2019-02-26T05:02:56.018Z,2.05
2019-02-26T05:05:51.446Z,2.12
2019-02-26T05:08:04.058Z,2.14
2019-02-26T05:10:13.906Z,1.98
2019-02-26T05:12:25.445Z,1.87
2019-02-26T05:14:37.422Z,1.81
2019-02-26T05:16:48.216Z,1.78
2019-02-26T05:18:59.055Z,1.78
2019-02-26T05:21:10.869Z,1.82
2019-02-26T05:23:23.263Z,1.76
2019-02-26T05:25:39.259Z,1.67
2019-02-26T05:27:50.225Z,1.67
2019-02-26T05:30:00.814Z,1.68
2019-02-26T05:32:11.705Z,1.76
2019-02-26T05:34:23.174Z,1.84
2019-02-26T05:36:37.280Z,1.89
2019-02-26T05:38:49.259Z,1.89
2019-02-26T05:41:00.662Z,1.86
2019-02-26T05:43:11.507Z,1.82
2019-02-26T05:45:23.833Z,1.77
2019-02-26T05:47:35.006Z,1.79
2019-02-26T05:49:46.001Z,1.73
2019-02-26T05:52:01.033Z,1.63
2019-02-26T05:54:12.188Z,1.62
2019-02-26T05:56:24.050Z,1.57
2019-02-26T05:58:36.284Z,1.58
2019-02-26T06:00:47.709Z,1.60
2019-02-26T06:02:58.510Z,1.58
2019-02-26T06:05:11.622Z,1.54
2019-02-26T06:07:24.461Z,1.58
2019-02-26T06:09:34.753Z,1.57
2019-02-26T06:11:49.374Z,1.54
2019-02-26T06:14:01.333Z,1.56
2019-02-26T06:16:11.015Z,1.66
2019-02-26T06:18:21.831Z,1.69
2019-02-26T06:20:36.095Z,1.62
2019-02-26T06:22:45.362Z,1.64
2019-02-26T06:24:59.505Z,1.67
2019-02-26T06:27:13.111Z,1.75
2019-02-26T06:29:22.606Z,1.79
2019-02-26T06:31:34.393Z,1.83
2019-02-26T06:33:47.525Z,1.86
2019-02-26T06:35:59.843Z,1.84
2019-02-26T06:38:11.690Z,1.85
2019-02-26T06:40:23.354Z,1.85
2019-02-26T06:42:35.515Z,1.94
2019-02-26T06:44:48.873Z,2.02
2019-02-26T06:47:00.327Z,2.12
2019-02-26T06:49:12.324Z,2.21
2019-02-26T06:51:24.321Z,2.24
2019-02-26T06:53:35.842Z,2.32
2019-02-26T06:55:46.657Z,2.42
2019-02-26T06:58:38.137Z,2.52
2019-02-26T07:00:54.715Z,2.60
2019-02-26T07:03:44.596Z,2.70
2019-02-26T07:05:55.414Z,2.69
2019-02-26T07:08:06.666Z,2.65
2019-02-26T07:10:23.668Z,2.68
2019-02-26T07:12:31.850Z,2.63
2019-02-26T07:14:42.663Z,2.57
2019-02-26T07:16:53.477Z,2.56
2019-02-26T07:19:06.399Z,2.59
2019-02-26T07:21:17.015Z,2.67
2019-02-26T07:23:29.762Z,2.66
2019-02-26T07:25:42.176Z,2.72
2019-02-26T07:27:55.441Z,2.81
2019-02-26T07:30:47.597Z,3.00
2019-02-26T07:32:58.423Z,3.17
2019-02-26T07:35:11.078Z,3.75
2019-02-26T07:37:21.959Z,4.28
2019-02-26T07:39:32.760Z,4.84
2019-02-26T07:41:44.640Z,5.26
2019-02-26T07:43:56.300Z,5.70
2019-02-26T07:46:09.386Z,6.00
2019-02-26T07:48:21.263Z,6.23
2019-02-26T07:50:37.454Z,6.64
2019-02-26T07:52:47.218Z,7.14
2019-02-26T07:54:58.001Z,7.68
2019-02-26T07:57:08.864Z,8.03
2019-02-26T07:59:27.412Z,8.41
2019-02-26T08:01:32.459Z,8.77
2019-02-26T08:03:44.053Z,9.13
2019-02-26T08:05:55.985Z,9.47
2019-02-26T08:08:06.800Z,9.76
2019-02-26T08:10:19.521Z,10.05
2019-02-26T08:12:32.703Z,10.29
2019-02-26T08:14:45.232Z,10.50
2019-02-26T08:16:56.763Z,10.71
2019-02-26T08:19:08.440Z,10.91
2019-02-26T08:21:21.747Z,11.17
2019-02-26T08:23:31.984Z,11.42
2019-02-26T08:25:42.772Z,11.69
2019-02-26T08:27:54.688Z,12.00
2019-02-26T08:30:49.901Z,12.18
2019-02-26T08:33:02.659Z,12.38
2019-02-26T08:35:17.873Z,12.66
2019-02-26T08:37:26.328Z,12.77
2019-02-26T08:39:38.002Z,12.85
2019-02-26T08:42:09.704Z,12.96
2019-02-26T08:44:20.516Z,13.06
2019-02-26T08:46:31.467Z,13.28
2019-02-26T08:48:45.531Z,13.37
2019-02-26T08:50:55.796Z,13.33
2019-02-26T08:53:07.718Z,13.41
2019-02-26T08:55:21.510Z,13.48
2019-02-26T08:57:31.275Z,13.51
2019-02-26T08:59:44.178Z,13.42
2019-02-26T09:01:54.933Z,13.34
2019-02-26T09:04:05.746Z,13.37
2019-02-26T09:06:16.565Z,13.47
2019-02-26T09:08:27.362Z,13.55
2019-02-26T09:10:38.741Z,13.62
2019-02-26T09:12:51.859Z,13.80
2019-02-26T09:15:45.237Z,13.96
2019-02-26T09:17:56.044Z,14.19
2019-02-26T09:20:26.725Z,14.47
2019-02-26T09:22:37.543Z,14.56
2019-02-26T09:24:49.459Z,14.63
2019-02-26T09:27:03.289Z,14.63
2019-02-26T09:29:15.530Z,14.63
2019-02-26T09:31:26.583Z,14.75
2019-02-26T09:33:38.701Z,14.94
2019-02-26T09:35:52.045Z,15.13
2019-02-26T09:38:02.933Z,15.15
2019-02-26T09:40:57.093Z,15.21
2019-02-26T09:43:08.091Z,15.30
2019-02-26T09:46:00.570Z,15.16
2019-02-26T09:48:12.227Z,15.30
2019-02-26T09:50:24.116Z,15.53
2019-02-26T09:52:35.040Z,15.66
2019-02-26T09:54:48.116Z,15.67
2019-02-26T09:56:58.581Z,15.72
2019-02-26T09:59:10.288Z,15.72
2019-02-26T10:01:22.098Z,15.75
2019-02-26T10:03:36.756Z,15.77
2019-02-26T10:05:47.680Z,15.78
2019-02-26T10:08:00.464Z,15.82
2019-02-26T10:10:33.185Z,15.82
2019-02-26T10:12:43.641Z,15.86
2019-02-26T10:14:55.714Z,15.95
2019-02-26T10:17:09.081Z,16.02
2019-02-26T10:19:19.934Z,15.83
2019-02-26T10:21:33.123Z,15.84
2019-02-26T10:23:47.193Z,15.87
2019-02-26T10:25:57.910Z,16.09
2019-02-26T10:28:11.417Z,16.25
2019-02-26T10:30:21.666Z,16.32
2019-02-26T10:32:32.882Z,16.29
2019-02-26T10:34:45.184Z,16.25
2019-02-26T10:36:55.969Z,16.31
2019-02-26T10:39:08.312Z,16.36
2019-02-26T10:41:21.113Z,16.26
2019-02-26T10:43:32.377Z,16.34
2019-02-26T10:45:44.799Z,16.31
2019-02-26T10:47:56.904Z,16.27
2019-02-26T10:50:51.878Z,16.31
2019-02-26T10:53:09.727Z,16.39
2019-02-26T10:55:17.622Z,16.56
2019-02-26T10:57:30.646Z,16.58
2019-02-26T10:59:44.017Z,16.66
2019-02-26T11:01:55.265Z,16.64
2019-02-26T11:04:06.992Z,16.77
2019-02-26T11:06:25.497Z,16.85
2019-02-26T11:08:36.289Z,16.81
2019-02-26T11:10:49.673Z,16.80
2019-02-26T11:12:59.911Z,16.83
2019-02-26T11:15:53.869Z,16.92
2019-02-26T11:18:05.046Z,17.06
2019-02-26T11:20:59.286Z,17.13
2019-02-26T11:23:13.257Z,17.02
2019-02-26T11:25:24.872Z,17.03
2019-02-26T11:27:37.867Z,17.04
2019-02-26T11:29:48.549Z,16.98
2019-02-26T11:32:01.507Z,17.06
2019-02-26T11:34:13.383Z,17.15
2019-02-26T11:36:25.121Z,17.22
2019-02-26T11:38:39.574Z,17.18
2019-02-26T11:40:49.749Z,17.18
2019-02-26T11:43:10.899Z,17.17
2019-02-26T11:45:35.154Z,17.24
2019-02-26T11:48:28.937Z,17.23
2019-02-26T11:50:44.265Z,17.33
2019-02-26T11:52:54.969Z,17.34
2019-02-26T11:55:49.348Z,17.41
2019-02-26T11:58:00.096Z,17.29
2019-02-26T12:00:51.076Z,17.31
2019-02-26T12:03:01.984Z,17.42
2019-02-26T12:05:12.881Z,17.48
2019-02-26T12:07:25.590Z,17.55
2019-02-26T12:09:40.146Z,17.62
2019-02-26T12:11:49.141Z,17.66
2019-02-26T12:13:59.965Z,17.71
2019-02-26T12:16:10.759Z,17.75
2019-02-26T12:18:22.506Z,17.77
2019-02-26T12:20:35.566Z,17.72
2019-02-26T12:22:49.666Z,17.76
2019-02-26T12:25:01.861Z,17.76
2019-02-26T12:27:17.661Z,17.75
2019-02-26T12:29:26.421Z,17.76
2019-02-26T12:31:39.098Z,17.70
2019-02-26T12:33:50.980Z,17.68
2019-02-26T12:36:02.574Z,17.67
2019-02-26T12:38:18.862Z,17.71
2019-02-26T12:40:27.267Z,17.70
2019-02-26T12:42:38.125Z,17.71
2019-02-26T12:44:48.919Z,17.67
2019-02-26T12:47:00.429Z,17.61
2019-02-26T12:49:14.862Z,17.64
2019-02-26T12:51:26.274Z,17.64
2019-02-26T12:53:57.851Z,17.66
2019-02-26T12:56:08.990Z,17.70
2019-02-26T12:58:26.194Z,17.72
2019-02-26T13:00:34.869Z,17.72
2019-02-26T13:02:49.400Z,17.78
2019-02-26T13:04:59.703Z,17.78
2019-02-26T13:07:10.550Z,17.79
2019-02-26T13:09:26.469Z,17.80
2019-02-26T13:11:34.185Z,17.82
2019-02-26T13:13:48.082Z,17.84
2019-02-26T13:15:57.708Z,17.84
2019-02-26T13:18:08.504Z,17.84
2019-02-26T13:21:03.950Z,17.83
2019-02-26T13:23:20.083Z,17.87
2019-02-26T13:25:26.996Z,17.89
2019-02-26T13:27:43.206Z,17.89
2019-02-26T13:29:56.830Z,17.87
2019-02-26T13:32:08.021Z,17.88
2019-02-26T13:34:17.297Z,17.94
2019-02-26T13:36:28.161Z,17.92
2019-02-26T13:38:44.863Z,17.91
2019-02-26T13:40:51.614Z,17.85
2019-02-26T13:43:44.069Z,17.87
2019-02-26T13:45:54.881Z,17.90
2019-02-26T13:48:05.828Z,17.85
2019-02-26T13:50:38.952Z,17.87
2019-02-26T13:52:49.251Z,17.86
2019-02-26T13:55:00.262Z,17.81
2019-02-26T13:57:11.062Z,17.81
2019-02-26T13:59:21.902Z,17.77
2019-02-26T14:01:32.813Z,17.75
2019-02-26T14:03:43.655Z,17.78
2019-02-26T14:05:54.456Z,17.78
2019-02-26T14:08:05.382Z,17.83
2019-02-26T14:10:57.831Z,17.78
2019-02-26T14:13:08.662Z,17.82
2019-02-26T14:15:39.543Z,17.82
2019-02-26T14:17:50.425Z,17.79
2019-02-26T14:20:01.234Z,17.76
2019-02-26T14:22:12.035Z,17.75
2019-02-26T14:24:24.409Z,17.76
2019-02-26T14:26:35.554Z,17.77
2019-02-26T14:28:48.351Z,17.79
2019-02-26T14:30:59.253Z,17.81
2019-02-26T14:33:10.051Z,17.80
2019-02-26T14:35:20.881Z,17.80
2019-02-26T14:37:31.706Z,17.76
2019-02-26T14:39:42.498Z,17.75
2019-02-26T14:41:53.325Z,17.72
2019-02-26T14:44:04.135Z,17.76
2019-02-26T14:46:14.964Z,17.79
2019-02-26T14:48:25.832Z,17.81
2019-02-26T14:50:36.648Z,17.80
2019-02-26T14:52:47.569Z,17.76
2019-02-26T14:54:58.401Z,17.74
2019-02-26T14:57:09.231Z,17.67
2019-02-26T14:59:20.153Z,17.69
2019-02-26T15:01:30.975Z,17.70
2019-02-26T15:03:41.831Z,17.70
2019-02-26T15:05:54.555Z,17.71
2019-02-26T15:08:07.264Z,17.69
2019-02-26T15:10:59.728Z,17.63
2019-02-26T15:13:10.538Z,17.59
2019-02-26T15:15:21.490Z,17.59
2019-02-26T15:17:32.301Z,17.56
2019-02-26T15:19:49.596Z,17.48
2019-02-26T15:21:57.256Z,17.44
2019-02-26T15:24:08.598Z,17.40
2019-02-26T15:26:19.422Z,17.35
2019-02-26T15:28:30.329Z,17.34
2019-02-26T15:30:41.175Z,17.31
2019-02-26T15:32:52.213Z,17.28
2019-02-26T15:35:44.721Z,17.28
2019-02-26T15:37:55.508Z,17.34
2019-02-26T15:40:28.151Z,17.27
2019-02-26T15:42:38.978Z,17.21
2019-02-26T15:44:49.770Z,17.16
2019-02-26T15:47:02.289Z,17.11
2019-02-26T15:49:13.324Z,17.09
2019-02-26T15:51:24.152Z,17.04
2019-02-26T15:53:34.982Z,17.02
2019-02-26T15:55:45.771Z,16.97
2019-02-26T15:57:56.594Z,16.92
2019-02-26T16:00:49.051Z,16.89
2019-02-26T16:03:00.119Z,16.85
2019-02-26T16:05:12.659Z,16.77
2019-02-26T16:10:44.087Z,16.66
2019-02-26T16:15:55.651Z,16.52
2019-02-26T16:18:06.581Z,16.49
2019-02-26T16:20:59.004Z,16.45
2019-02-26T16:23:09.895Z,16.41
2019-02-26T16:25:20.841Z,16.36
2019-02-26T16:27:37.540Z,16.32
2019-02-26T16:29:44.433Z,16.26
2019-02-26T16:31:57.222Z,16.24
2019-02-26T16:34:07.991Z,16.22
2019-02-26T16:36:18.816Z,16.14
2019-02-26T16:38:29.633Z,16.07
2019-02-26T16:40:40.463Z,15.96
2019-02-26T16:42:51.278Z,15.79
2019-02-26T16:45:45.646Z,15.63
2019-02-26T16:47:57.379Z,15.51
2019-02-26T16:50:50.959Z,15.31
2019-02-26T16:53:01.766Z,15.20
2019-02-26T16:55:17.092Z,15.03
2019-02-26T16:57:28.168Z,14.91
2019-02-26T16:59:40.876Z,14.80
2019-02-26T17:01:54.980Z,14.69
2019-02-26T17:04:07.599Z,14.63
2019-02-26T17:06:20.511Z,14.50
2019-02-26T17:08:31.042Z,14.41
2019-02-26T17:10:41.955Z,14.30
2019-02-26T17:16:06.778Z,14.08
2019-02-26T17:18:17.623Z,13.96
2019-02-26T17:20:28.622Z,13.76
2019-02-26T17:22:41.050Z,13.63
2019-02-26T17:24:53.664Z,13.50
2019-02-26T17:27:05.740Z,13.38
2019-02-26T17:29:19.605Z,13.21
2019-02-26T17:31:30.774Z,13.07
2019-02-26T17:33:44.723Z,12.97
2019-02-26T17:35:55.980Z,12.89
2019-02-26T17:38:06.902Z,12.80
2019-02-26T17:40:37.586Z,12.73
2019-02-26T17:42:48.862Z,12.65
2019-02-26T17:45:01.214Z,12.50
2019-02-26T17:47:13.960Z,12.33
2019-02-26T17:49:24.977Z,12.18
2019-02-26T17:51:35.919Z,12.04
2019-02-26T17:53:46.719Z,11.84
2019-02-26T17:55:57.517Z,11.70
2019-02-26T17:58:10.572Z,11.64
2019-02-26T18:01:02.815Z,11.52
2019-02-26T18:03:13.648Z,11.43
2019-02-26T18:05:24.458Z,11.37
2019-02-26T18:07:38.295Z,11.30
2019-02-26T18:09:48.062Z,11.16
2019-02-26T18:11:59.790Z,11.07
2019-02-26T18:14:11.744Z,10.99
2019-02-26T18:16:22.568Z,10.83
2019-02-26T18:18:34.415Z,10.70
2019-02-26T18:20:46.247Z,10.63
2019-02-26T18:22:59.836Z,10.61
2019-02-26T18:25:51.426Z,10.56
2019-02-26T18:28:02.406Z,10.41
2019-02-26T18:30:54.870Z,10.25
2019-02-26T18:33:05.717Z,10.16
2019-02-26T18:35:16.558Z,10.11
2019-02-26T18:37:27.469Z,10.10
2019-02-26T18:39:38.357Z,10.13
2019-02-26T18:41:50.791Z,10.07
2019-02-26T18:44:21.769Z,10.07
2019-02-26T18:46:33.784Z,10.03
2019-02-26T18:48:48.337Z,9.94
2019-02-26T18:50:59.665Z,9.86
2019-02-26T18:53:11.714Z,9.77
2019-02-26T18:55:27.887Z,9.74
2019-02-26T18:57:36.407Z,9.73
2019-02-26T18:59:47.268Z,9.73
2019-02-26T19:01:58.098Z,9.65
2019-02-26T19:04:09.000Z,9.64
2019-02-26T19:06:19.862Z,9.58
2019-02-26T19:08:30.792Z,9.48
2019-02-26T19:10:41.672Z,9.39
2019-02-26T19:12:52.572Z,9.37
2019-02-26T19:15:47.565Z,9.28
2019-02-26T19:18:02.254Z,9.23
2019-02-26T19:20:52.209Z,9.11
2019-02-26T19:23:03.132Z,9.10
2019-02-26T19:25:14.068Z,9.08
2019-02-26T19:27:24.907Z,9.03
2019-02-26T19:29:35.726Z,8.97
2019-02-26T19:31:46.581Z,8.93
2019-02-26T19:33:57.408Z,8.88
2019-02-26T19:36:10.701Z,8.79
2019-02-26T19:38:20.983Z,8.70
2019-02-26T19:41:13.490Z,8.60
2019-02-26T19:43:26.082Z,8.57
2019-02-26T19:45:37.119Z,8.50
2019-02-26T19:47:47.982Z,8.50
2019-02-26T19:49:58.776Z,8.50
2019-02-26T19:52:09.643Z,8.49
2019-02-26T19:54:20.463Z,8.42
2019-02-26T19:56:31.468Z,8.35
2019-02-26T19:58:42.282Z,8.27
2019-02-26T20:00:53.830Z,8.28
2019-02-26T20:03:06.268Z,8.26
2019-02-26T20:05:18.663Z,8.22
2019-02-26T20:07:32.210Z,8.11
2019-02-26T20:09:42.251Z,8.00
2019-02-26T20:11:53.591Z,7.93
2019-02-26T20:14:05.826Z,7.88
2019-02-26T20:16:16.689Z,7.83
2019-02-26T20:18:27.528Z,7.77
2019-02-26T20:20:40.980Z,7.80
2019-02-26T20:22:51.147Z,7.80
2019-02-26T20:25:43.629Z,7.79
2019-02-26T20:27:56.264Z,7.74
2019-02-26T20:30:48.893Z,7.62
2019-02-26T20:33:01.526Z,7.47
2019-02-26T20:35:12.691Z,7.30
2019-02-26T20:37:24.418Z,7.32
2019-02-26T20:39:36.340Z,7.36
2019-02-26T20:41:47.145Z,7.43
2019-02-26T20:43:57.972Z,7.41
2019-02-26T20:46:08.818Z,7.35
2019-02-26T20:48:19.629Z,7.29
2019-02-26T20:50:30.573Z,7.14
2019-02-26T20:52:41.512Z,7.00
2019-02-26T20:54:52.297Z,6.96
2019-02-26T20:57:03.940Z,6.89
2019-02-26T20:59:17.990Z,6.75
2019-02-26T21:01:29.675Z,6.65
2019-02-26T21:03:41.416Z,6.59
2019-02-26T21:05:52.250Z,6.58
2019-02-26T21:08:03.081Z,6.60
2019-02-26T21:10:55.577Z,6.63
2019-02-26T21:13:06.461Z,6.54
2019-02-26T21:15:37.179Z,6.43
2019-02-26T21:17:47.997Z,6.41
2019-02-26T21:19:58.831Z,6.43
2019-02-26T21:22:09.641Z,6.44
2019-02-26T21:24:20.465Z,6.44
2019-02-26T21:26:31.294Z,6.47
2019-02-26T21:28:42.147Z,6.43
2019-02-26T21:30:52.982Z,6.39
2019-02-26T21:33:03.790Z,6.32
2019-02-26T21:35:14.705Z,6.18
2019-02-26T21:37:25.558Z,6.08
2019-02-26T21:39:36.377Z,6.12
2019-02-26T21:41:47.211Z,6.17
2019-02-26T21:43:58.046Z,6.14
2019-02-26T21:46:08.881Z,5.99
2019-02-26T21:48:39.563Z,5.77
2019-02-26T21:50:50.389Z,5.77
2019-02-26T21:53:01.230Z,5.71
2019-02-26T21:55:55.563Z,5.68
2019-02-26T21:58:06.407Z,5.69
2019-02-26T22:00:58.864Z,5.64
2019-02-26T22:03:09.728Z,5.58
2019-02-26T22:05:20.587Z,5.49
2019-02-26T22:07:31.395Z,5.52
2019-02-26T22:09:42.179Z,5.61
2019-02-26T22:11:53.287Z,5.68
2019-02-26T22:14:04.198Z,5.63
2019-02-26T22:16:17.497Z,5.62
2019-02-26T22:18:30.899Z,5.55
2019-02-26T22:20:40.465Z,5.51
2019-02-26T22:22:51.404Z,5.44
2019-02-26T22:25:43.850Z,5.41
2019-02-26T22:27:54.665Z,5.49
2019-02-26T22:30:47.102Z,5.53
2019-02-26T22:32:57.950Z,5.56
2019-02-26T22:35:08.833Z,5.58
2019-02-26T22:37:19.654Z,5.53
2019-02-26T22:39:30.466Z,5.41
2019-02-26T22:41:41.293Z,5.32
2019-02-26T22:43:52.119Z,5.30
2019-02-26T22:46:02.910Z,5.24
2019-02-26T22:48:14.234Z,5.19
2019-02-26T22:50:27.259Z,5.17
2019-02-26T22:52:39.187Z,5.13
2019-02-26T22:54:50.042Z,5.06
2019-02-26T22:57:00.853Z,5.01
2019-02-26T22:59:11.651Z,5.00
2019-02-26T23:02:04.137Z,5.01
2019-02-26T23:04:19.306Z,4.98
2019-02-26T23:06:29.481Z,4.99
2019-02-26T23:08:44.319Z,4.87
2019-02-26T23:10:56.886Z,4.73
2019-02-26T23:13:06.353Z,4.55
2019-02-26T23:15:17.184Z,4.46
2019-02-26T23:20:00.419Z,4.43
2019-02-26T23:22:11.325Z,4.39
2019-02-26T23:24:22.245Z,4.42
2019-02-26T23:29:05.617Z,4.38
2019-02-26T23:31:58.085Z,4.37
2019-02-26T23:34:08.901Z,4.33
2019-02-26T23:36:19.695Z,4.40
2019-02-26T23:38:50.357Z,4.46
2019-02-26T23:41:01.170Z,4.50
2019-02-26T23:43:12.524Z,4.61
2019-02-26T23:45:24.920Z,4.70
2019-02-26T23:47:35.725Z,4.67
2019-02-26T23:49:47.790Z,4.60
2019-02-26T23:51:59.219Z,4.51
2019-02-26T23:54:10.026Z,4.40
2019-02-26T23:56:20.857Z,4.34
2019-02-26T23:58:31.759Z,4.28
